Phuket International

Airport
ICAO code: 
VTSP
Summary
ICAO Region: 
APAC
Territory: 
Location: 
Phuket, Thailand,
Coordinates: 
Aerial View: 
8° 6' 47.52" N, 98° 19' 0.847" E
Metar
Observation
VTSP 250400Z 31005KT 280V350 9999 FEW020 26/23 Q1008 NOSIG
Station
Phuket Airport
Date/Time
2022-06-25 04:00:00
Wind direction
310°
Wind speed
05 kts
Lowest cloud amount
few clouds
Temperature
26°C
Dew point
23°C
Humidity
83%
QNH
1008 hPa
Weather condition
n/a

Description

International airport serving Phuket, Thailand.

Climatology

Tropical Monsoon climate (Köppen climate classification Am) - monthly mean temperatures above 18°C in every month of the year and features wet and dry seasons. A tropical monsoon climate typically features less pronounced dry seasons than a tropical savanna climate and see less variance in temperatures during the course of the year. The driest month nearly always occurs at or soon after the "winter" solstice.

Runways

Designator Length Width Surface Rops
9/27 3000 45 ASP Yes/Yes
Airport map: 
Aerial View: 

Accidents and Serious Incidents at or in the vicinity of VTSP

SKYbrary Partners:

Safety knowledge contributed by: